createdAt,value
2022-12-25T00:00:15.138Z,7.74
2022-12-25T00:02:45.751Z,7.75
2022-12-25T00:05:13.056Z,7.76
2022-12-25T00:07:40.242Z,7.77
2022-12-25T00:10:09.643Z,7.78
2022-12-25T00:12:36.930Z,7.80
2022-12-25T00:15:05.082Z,7.81
2022-12-25T00:17:32.297Z,7.85
2022-12-25T00:19:59.556Z,7.85
2022-12-25T00:22:27.008Z,7.88
2022-12-25T00:24:54.184Z,7.89
2022-12-25T00:27:21.612Z,7.89
2022-12-25T00:29:48.940Z,7.90
2022-12-25T00:32:16.149Z,7.88
2022-12-25T00:34:43.370Z,7.89
2022-12-25T00:37:10.693Z,7.88
2022-12-25T00:39:38.074Z,7.88
2022-12-25T00:42:20.707Z,7.86
2022-12-25T00:44:50.509Z,7.83
2022-12-25T00:47:18.272Z,7.83
2022-12-25T00:49:45.778Z,7.82
2022-12-25T00:52:13.117Z,7.82
2022-12-25T00:54:40.324Z,7.82
2022-12-25T00:57:07.559Z,7.83
2022-12-25T00:59:35.733Z,7.86
2022-12-25T01:02:21.629Z,7.85
2022-12-25T01:04:51.082Z,7.81
2022-12-25T01:07:19.857Z,7.84
2022-12-25T01:10:06.659Z,7.86
2022-12-25T01:12:39.912Z,7.86
2022-12-25T01:15:10.946Z,7.87
2022-12-25T01:17:38.241Z,7.90
2022-12-25T01:20:06.786Z,7.90
2022-12-25T01:22:34.095Z,7.89
2022-12-25T01:25:01.476Z,7.89
2022-12-25T01:27:28.675Z,7.89
2022-12-25T01:29:55.901Z,7.87
2022-12-25T01:32:23.456Z,7.87
2022-12-25T01:34:56.016Z,7.89
2022-12-25T01:37:25.723Z,7.88
2022-12-25T01:39:52.958Z,7.90
2022-12-25T01:42:24.036Z,7.92
2022-12-25T01:44:51.064Z,7.94
2022-12-25T01:47:19.006Z,7.96
2022-12-25T01:49:50.976Z,7.95
2022-12-25T01:52:25.159Z,7.95
2022-12-25T01:55:09.388Z,7.96
2022-12-25T01:57:40.452Z,7.98
2022-12-25T02:00:11.930Z,7.99
2022-12-25T02:02:41.303Z,8.01
2022-12-25T02:05:28.236Z,8.00
2022-12-25T02:07:58.276Z,8.01
2022-12-25T02:10:25.668Z,8.03
2022-12-25T02:12:53.807Z,8.03
2022-12-25T02:15:33.608Z,8.04
2022-12-25T02:18:40.823Z,8.04
2022-12-25T02:21:52.963Z,8.06
2022-12-25T02:25:22.419Z,8.06
2022-12-25T02:28:28.926Z,8.05
2022-12-25T02:31:16.294Z,8.05
2022-12-25T02:34:32.648Z,8.07
2022-12-25T02:37:42.683Z,8.10
2022-12-25T02:40:19.628Z,8.11
2022-12-25T02:43:30.395Z,8.14
2022-12-25T02:46:29.226Z,8.15
2022-12-25T02:49:34.574Z,8.16
2022-12-25T02:52:29.829Z,8.16
2022-12-25T02:55:38.225Z,8.15
2022-12-25T02:58:33.458Z,8.16
2022-12-25T03:01:36.734Z,8.13
2022-12-25T03:04:48.278Z,8.18
2022-12-25T03:07:22.525Z,8.10
2022-12-25T03:10:23.663Z,8.08
2022-12-25T03:13:12.694Z,8.03
2022-12-25T03:15:58.819Z,8.00
2022-12-25T03:18:31.287Z,7.97
2022-12-25T03:21:18.721Z,7.95
2022-12-25T03:24:14.955Z,7.95
2022-12-25T03:26:55.896Z,7.89
2022-12-25T03:29:52.508Z,7.85
2022-12-25T03:32:35.388Z,7.83
2022-12-25T03:36:03.217Z,7.83
2022-12-25T03:39:21.036Z,7.78
2022-12-25T03:42:19.323Z,7.74
2022-12-25T03:45:37.595Z,7.71
2022-12-25T03:48:27.021Z,7.68
2022-12-25T03:51:28.670Z,7.66
2022-12-25T03:54:24.254Z,7.66
2022-12-25T03:57:11.123Z,7.65
2022-12-25T03:59:56.933Z,7.65
2022-12-25T04:02:42.929Z,7.64
2022-12-25T04:05:28.949Z,7.64
2022-12-25T04:08:14.658Z,7.63
2022-12-25T04:11:00.680Z,7.61
2022-12-25T04:13:46.428Z,7.61
2022-12-25T04:16:32.318Z,7.62
2022-12-25T04:19:18.123Z,7.62
2022-12-25T04:22:04.609Z,7.59
2022-12-25T04:24:50.620Z,7.57
2022-12-25T04:27:36.511Z,7.56
2022-12-25T04:30:23.005Z,7.55
2022-12-25T04:33:09.107Z,7.53
2022-12-25T04:35:54.886Z,7.52
2022-12-25T04:38:22.332Z,7.50
2022-12-25T04:40:49.534Z,7.49
2022-12-25T04:43:16.775Z,7.48
2022-12-25T04:45:52.455Z,7.47
2022-12-25T04:48:19.777Z,7.46
2022-12-25T04:50:46.992Z,7.46
2022-12-25T04:53:15.186Z,7.46
2022-12-25T04:55:42.445Z,7.43
2022-12-25T04:58:10.196Z,7.44
2022-12-25T05:00:37.765Z,7.42
2022-12-25T05:03:05.207Z,7.40
2022-12-25T05:05:32.509Z,7.39
2022-12-25T05:07:59.720Z,7.36
2022-12-25T05:10:26.904Z,7.35
2022-12-25T05:12:54.066Z,7.34
2022-12-25T05:15:21.496Z,7.32
2022-12-25T05:17:50.835Z,7.31
2022-12-25T05:20:18.099Z,7.31
2022-12-25T05:22:45.353Z,7.29
2022-12-25T05:25:12.569Z,7.30
2022-12-25T05:27:40.038Z,7.27
2022-12-25T05:30:08.806Z,7.26
2022-12-25T05:32:36.349Z,7.26
2022-12-25T05:35:04.169Z,7.27
2022-12-25T05:37:31.427Z,7.28
2022-12-25T05:39:59.231Z,7.31
2022-12-25T05:42:26.503Z,7.36
2022-12-25T05:44:53.827Z,7.37
2022-12-25T05:47:21.202Z,7.38
2022-12-25T05:49:48.444Z,7.41
2022-12-25T05:52:15.679Z,7.38
2022-12-25T05:54:42.982Z,7.37
2022-12-25T05:57:10.162Z,7.36
2022-12-25T05:59:37.487Z,7.36
2022-12-25T06:02:04.887Z,7.36
2022-12-25T06:04:32.177Z,7.38
2022-12-25T06:06:59.451Z,7.41
2022-12-25T06:09:26.807Z,7.41
2022-12-25T06:11:54.048Z,7.45
2022-12-25T06:14:21.249Z,7.45
2022-12-25T06:16:53.529Z,7.46
2022-12-25T06:19:21.889Z,7.48
2022-12-25T06:21:54.353Z,7.49
2022-12-25T06:24:23.757Z,7.52
2022-12-25T06:26:51.076Z,7.55
2022-12-25T06:29:18.330Z,7.57
2022-12-25T06:31:45.570Z,7.59
2022-12-25T06:34:16.408Z,7.62
2022-12-25T06:36:43.662Z,7.64
2022-12-25T06:39:10.967Z,7.68
2022-12-25T06:41:38.174Z,7.69
2022-12-25T06:44:05.799Z,7.71
2022-12-25T06:46:33.092Z,7.73
2022-12-25T06:49:01.271Z,7.75
2022-12-25T06:51:32.214Z,7.77
2022-12-25T06:54:03.939Z,7.81
2022-12-25T06:56:34.057Z,7.83
2022-12-25T06:59:06.934Z,7.84
2022-12-25T07:01:53.647Z,7.86
2022-12-25T07:04:38.116Z,7.89
2022-12-25T07:07:09.217Z,7.94
2022-12-25T07:09:39.098Z,7.94
2022-12-25T07:12:19.649Z,7.96
2022-12-25T07:14:50.039Z,7.96
2022-12-25T07:17:18.845Z,7.95
2022-12-25T07:19:49.877Z,7.98
2022-12-25T07:22:18.011Z,8.02
2022-12-25T07:24:45.294Z,8.03
2022-12-25T07:27:12.554Z,8.07
2022-12-25T07:29:39.786Z,8.10
2022-12-25T07:32:07.333Z,8.11
2022-12-25T07:34:34.574Z,8.12
2022-12-25T07:37:01.835Z,8.13
2022-12-25T07:39:29.348Z,8.14
2022-12-25T07:41:56.603Z,8.16
2022-12-25T07:44:27.202Z,8.16
2022-12-25T07:46:54.486Z,8.18
2022-12-25T07:49:21.924Z,8.18
2022-12-25T07:51:49.142Z,8.23
2022-12-25T07:54:16.410Z,8.22
2022-12-25T07:56:43.719Z,8.22
2022-12-25T07:59:10.947Z,8.23
2022-12-25T08:01:38.366Z,8.21
2022-12-25T08:04:05.815Z,8.22
2022-12-25T08:06:35.935Z,8.22
2022-12-25T08:09:13.511Z,8.23
2022-12-25T08:11:46.882Z,8.22
2022-12-25T08:14:15.358Z,8.22
2022-12-25T08:16:42.678Z,8.24
2022-12-25T08:19:10.556Z,8.25
2022-12-25T08:21:38.227Z,8.27
2022-12-25T08:24:05.935Z,8.28
2022-12-25T08:26:33.252Z,8.29
2022-12-25T08:29:00.518Z,8.29
2022-12-25T08:31:30.345Z,8.30
2022-12-25T08:33:59.711Z,8.27
2022-12-25T08:36:27.498Z,8.26
2022-12-25T08:39:02.075Z,8.26
2022-12-25T08:41:31.615Z,8.26
2022-12-25T08:43:59.372Z,8.26
2022-12-25T08:46:26.668Z,8.27
2022-12-25T08:48:54.305Z,8.30
2022-12-25T08:51:23.991Z,8.32
2022-12-25T08:53:53.596Z,8.33
2022-12-25T08:56:21.176Z,8.34
2022-12-25T08:58:48.354Z,8.33
2022-12-25T09:01:15.712Z,8.32
2022-12-25T09:03:43.739Z,8.32
2022-12-25T09:06:16.013Z,8.30
2022-12-25T09:08:48.797Z,8.29
2022-12-25T09:11:19.764Z,8.30
2022-12-25T09:13:48.224Z,8.30
2022-12-25T09:16:21.566Z,8.28
2022-12-25T09:18:49.699Z,8.29
2022-12-25T09:21:18.997Z,8.31
2022-12-25T09:23:46.342Z,8.31
2022-12-25T09:26:18.048Z,8.34
2022-12-25T09:28:51.460Z,8.36
2022-12-25T09:31:22.125Z,8.35
2022-12-25T09:33:50.998Z,8.38
2022-12-25T09:36:18.778Z,8.38
2022-12-25T09:38:46.078Z,8.39
2022-12-25T09:41:34.643Z,8.38
2022-12-25T09:44:14.881Z,8.36
2022-12-25T09:46:53.783Z,8.30
2022-12-25T09:49:56.880Z,8.33
2022-12-25T09:52:57.593Z,8.32
2022-12-25T09:55:30.917Z,8.28
2022-12-25T09:58:02.499Z,8.26
2022-12-25T10:00:40.687Z,8.24
2022-12-25T10:03:24.591Z,8.23
2022-12-25T10:06:16.761Z,8.24
2022-12-25T10:08:49.647Z,8.24
2022-12-25T10:11:31.779Z,8.23
2022-12-25T10:14:38.681Z,8.22
2022-12-25T10:17:49.320Z,8.21
2022-12-25T10:20:39.496Z,8.20
2022-12-25T10:23:45.072Z,8.19
2022-12-25T10:26:25.471Z,8.19
2022-12-25T10:29:14.260Z,8.20
2022-12-25T10:31:46.945Z,8.22
2022-12-25T10:34:16.192Z,8.21
2022-12-25T10:36:46.435Z,8.20
2022-12-25T10:39:31.837Z,8.20
2022-12-25T10:42:43.672Z,8.16
2022-12-25T10:45:11.210Z,8.18
2022-12-25T10:47:42.664Z,8.16
2022-12-25T10:50:23.480Z,8.14
2022-12-25T10:53:22.258Z,8.16
2022-12-25T10:56:06.469Z,8.15
2022-12-25T10:58:34.754Z,8.15
2022-12-25T11:01:08.292Z,8.14
2022-12-25T11:03:41.508Z,8.17
2022-12-25T11:06:28.658Z,8.17
2022-12-25T11:09:02.537Z,8.16
2022-12-25T11:11:31.276Z,8.15
2022-12-25T11:14:02.710Z,8.17
2022-12-25T11:16:39.932Z,8.12
2022-12-25T11:19:32.752Z,8.13
2022-12-25T11:22:05.123Z,8.16
2022-12-25T11:24:35.093Z,8.15
2022-12-25T11:27:06.619Z,8.16
2022-12-25T11:29:58.158Z,8.16
2022-12-25T11:32:30.849Z,8.17
2022-12-25T11:35:01.858Z,8.19
2022-12-25T11:37:51.270Z,8.23
2022-12-25T11:40:46.112Z,8.24
2022-12-25T11:43:29.326Z,8.22
2022-12-25T11:46:28.444Z,8.24
2022-12-25T11:49:04.236Z,8.21
2022-12-25T11:51:40.045Z,8.22
2022-12-25T11:54:37.832Z,8.20
2022-12-25T11:57:06.470Z,8.19
2022-12-25T11:59:57.062Z,8.15
2022-12-25T12:03:16.760Z,8.21
2022-12-25T12:05:55.759Z,8.18
2022-12-25T12:08:23.051Z,8.18
2022-12-25T12:11:53.019Z,8.19
2022-12-25T12:14:50.548Z,8.17
2022-12-25T12:17:19.768Z,8.20
2022-12-25T12:19:47.120Z,8.21
2022-12-25T12:22:27.113Z,8.21
2022-12-25T12:25:07.707Z,8.22
2022-12-25T12:27:39.178Z,8.23
2022-12-25T12:30:25.881Z,8.25
2022-12-25T12:33:01.903Z,8.24
2022-12-25T12:35:40.531Z,8.28
2022-12-25T12:38:23.473Z,8.28
2022-12-25T12:41:02.293Z,8.32
2022-12-25T12:43:38.887Z,8.32
2022-12-25T12:46:16.047Z,8.34
2022-12-25T12:48:49.677Z,8.36
2022-12-25T12:51:33.409Z,8.36
2022-12-25T12:54:25.778Z,8.40
2022-12-25T12:57:29.827Z,8.41
2022-12-25T13:00:02.050Z,8.41
2022-12-25T13:03:24.889Z,8.39
2022-12-25T13:06:14.499Z,8.39
2022-12-25T13:09:19.548Z,8.38
2022-12-25T13:11:47.872Z,8.40
2022-12-25T13:14:25.198Z,8.41
2022-12-25T13:16:54.745Z,8.43
2022-12-25T13:19:27.506Z,8.41
2022-12-25T13:22:03.919Z,8.45
2022-12-25T13:24:37.453Z,8.47
2022-12-25T13:27:29.007Z,8.46
2022-12-25T13:29:56.771Z,8.44
2022-12-25T13:32:33.643Z,8.44
2022-12-25T13:35:01.198Z,8.43
2022-12-25T13:37:31.577Z,8.46
2022-12-25T13:40:05.158Z,8.48
2022-12-25T13:42:39.980Z,8.50
2022-12-25T13:45:25.894Z,8.52
2022-12-25T13:47:55.846Z,8.51
2022-12-25T13:50:33.918Z,8.53
2022-12-25T13:53:16.651Z,8.54
2022-12-25T13:55:54.724Z,8.54
2022-12-25T13:58:36.876Z,8.54
2022-12-25T14:01:04.442Z,8.56
2022-12-25T14:03:39.463Z,8.56
2022-12-25T14:06:31.225Z,8.58
2022-12-25T14:08:59.975Z,8.57
2022-12-25T14:11:31.214Z,8.58
2022-12-25T14:14:25.216Z,8.56
2022-12-25T14:16:59.348Z,8.55
2022-12-25T14:19:34.451Z,8.56
2022-12-25T14:22:21.821Z,8.57
2022-12-25T14:24:49.709Z,8.58
2022-12-25T14:27:32.667Z,8.57
2022-12-25T14:30:00.869Z,8.58
2022-12-25T14:32:37.849Z,8.59
2022-12-25T14:35:06.086Z,8.59
2022-12-25T14:37:34.291Z,8.56
2022-12-25T14:40:19.144Z,8.57
2022-12-25T14:43:05.478Z,8.55
2022-12-25T14:45:40.398Z,8.56
2022-12-25T14:48:30.023Z,8.56
2022-12-25T14:51:18.123Z,8.57
2022-12-25T14:54:00.153Z,8.56
2022-12-25T14:56:33.105Z,8.58
2022-12-25T14:59:00.707Z,8.58
2022-12-25T15:01:41.349Z,8.59
2022-12-25T15:04:11.950Z,8.62
2022-12-25T15:07:01.225Z,8.65
2022-12-25T15:09:30.058Z,8.64
2022-12-25T15:11:57.604Z,8.67
2022-12-25T15:14:26.417Z,8.68
2022-12-25T15:16:59.477Z,8.69
2022-12-25T15:19:37.749Z,8.67
2022-12-25T15:22:06.856Z,8.67
2022-12-25T15:24:34.152Z,8.69
2022-12-25T15:27:01.640Z,8.70
2022-12-25T15:30:07.821Z,8.71
2022-12-25T15:32:24.150Z,8.66
2022-12-25T15:34:52.904Z,8.67
2022-12-25T15:37:20.154Z,8.67
2022-12-25T15:39:47.585Z,8.67
2022-12-25T15:42:23.228Z,8.66
2022-12-25T15:44:51.039Z,8.67
2022-12-25T15:47:20.271Z,8.66
2022-12-25T15:49:49.010Z,8.65
2022-12-25T15:52:18.204Z,8.65
2022-12-25T15:54:45.743Z,8.66
2022-12-25T15:57:22.328Z,8.68
2022-12-25T15:59:49.631Z,8.68
2022-12-25T16:02:20.987Z,8.67
2022-12-25T16:04:50.959Z,8.72
2022-12-25T16:07:23.564Z,8.71
2022-12-25T16:09:51.776Z,8.71
2022-12-25T16:12:19.868Z,8.72
2022-12-25T16:14:47.142Z,8.70
2022-12-25T16:17:16.072Z,8.69
2022-12-25T16:19:44.940Z,8.69
2022-12-25T16:22:25.852Z,8.69
2022-12-25T16:24:53.851Z,8.71
2022-12-25T16:27:22.645Z,8.71
2022-12-25T16:29:49.890Z,8.73
2022-12-25T16:32:17.113Z,8.72
2022-12-25T16:34:44.378Z,8.71
2022-12-25T16:37:11.973Z,8.70
2022-12-25T16:39:39.229Z,8.70
2022-12-25T16:42:06.434Z,8.70
2022-12-25T16:44:37.538Z,8.68
2022-12-25T16:47:04.834Z,8.68
2022-12-25T16:49:32.492Z,8.66
2022-12-25T16:51:59.688Z,8.65
2022-12-25T16:54:26.993Z,8.66
2022-12-25T16:56:54.278Z,8.67
2022-12-25T16:59:21.498Z,8.67
2022-12-25T17:01:48.851Z,8.66
2022-12-25T17:04:16.083Z,8.67
2022-12-25T17:06:43.323Z,8.64
2022-12-25T17:09:10.681Z,8.63
2022-12-25T17:11:37.926Z,8.62
2022-12-25T17:14:06.221Z,8.61
2022-12-25T17:16:37.551Z,8.62
2022-12-25T17:19:19.345Z,8.65
2022-12-25T17:21:47.571Z,8.63
2022-12-25T17:24:15.625Z,8.66
2022-12-25T17:26:43.986Z,8.68
2022-12-25T17:29:15.970Z,8.70
2022-12-25T17:31:47.888Z,8.69
2022-12-25T17:34:15.244Z,8.69
2022-12-25T17:36:42.434Z,8.68
2022-12-25T17:39:10.708Z,8.68
2022-12-25T17:41:38.136Z,8.69
2022-12-25T17:44:05.680Z,8.68
2022-12-25T17:46:33.407Z,8.67
2022-12-25T17:49:01.894Z,8.67
2022-12-25T17:51:31.778Z,8.67
2022-12-25T17:54:05.053Z,8.66
2022-12-25T17:56:33.160Z,8.64
2022-12-25T17:59:12.110Z,8.64
2022-12-25T18:01:40.027Z,8.63
2022-12-25T18:04:07.790Z,8.63
2022-12-25T18:06:36.652Z,8.63
2022-12-25T18:09:06.260Z,8.63
2022-12-25T18:11:36.801Z,8.63
2022-12-25T18:14:07.397Z,8.62
2022-12-25T18:16:40.121Z,8.63
2022-12-25T18:19:07.542Z,8.65
2022-12-25T18:21:35.377Z,8.64
2022-12-25T18:24:05.870Z,8.59
2022-12-25T18:26:34.596Z,8.57
2022-12-25T18:29:02.282Z,8.58
2022-12-25T18:31:32.525Z,8.58
2022-12-25T18:34:00.290Z,8.58
2022-12-25T18:36:29.762Z,8.58
2022-12-25T18:38:58.238Z,8.57
2022-12-25T18:41:28.719Z,8.56
2022-12-25T18:43:56.748Z,8.57
2022-12-25T18:46:26.039Z,8.55
2022-12-25T18:48:57.678Z,8.55
2022-12-25T18:51:27.687Z,8.55
2022-12-25T18:53:58.613Z,8.57
2022-12-25T18:56:25.849Z,8.58
2022-12-25T18:58:53.087Z,8.59
2022-12-25T19:01:24.395Z,8.59
2022-12-25T19:03:58.642Z,8.57
2022-12-25T19:06:33.260Z,8.57
2022-12-25T19:09:08.690Z,8.56
2022-12-25T19:11:46.607Z,8.57
2022-12-25T19:14:15.520Z,8.56
2022-12-25T19:16:43.147Z,8.57
2022-12-25T19:19:10.476Z,8.58
2022-12-25T19:21:37.906Z,8.59
2022-12-25T19:24:05.673Z,8.60
2022-12-25T19:26:33.968Z,8.61
2022-12-25T19:29:01.307Z,8.63
2022-12-25T19:31:28.665Z,8.63
2022-12-25T19:33:55.936Z,8.63
2022-12-25T19:36:23.143Z,8.63
2022-12-25T19:38:50.400Z,8.63
2022-12-25T19:41:19.641Z,8.63
2022-12-25T19:43:49.625Z,8.63
2022-12-25T19:46:33.805Z,8.64
2022-12-25T19:49:04.303Z,8.63
2022-12-25T19:51:38.238Z,8.63
2022-12-25T19:54:07.145Z,8.61
2022-12-25T19:56:35.177Z,8.60
2022-12-25T19:59:02.631Z,8.63
2022-12-25T20:01:30.905Z,8.62
2022-12-25T20:03:58.363Z,8.62
2022-12-25T20:06:33.094Z,8.62
2022-12-25T20:09:11.034Z,8.59
2022-12-25T20:11:39.785Z,8.58
2022-12-25T20:14:08.842Z,8.58
2022-12-25T20:16:40.584Z,8.59
2022-12-25T20:19:09.700Z,8.59
2022-12-25T20:21:36.970Z,8.59
2022-12-25T20:24:06.332Z,8.60
2022-12-25T20:26:33.811Z,8.58
2022-12-25T20:29:01.059Z,8.58
2022-12-25T20:31:33.286Z,8.57
2022-12-25T20:34:10.751Z,8.60
2022-12-25T20:36:38.778Z,8.63
2022-12-25T20:39:09.583Z,8.64
2022-12-25T20:41:38.957Z,8.64
2022-12-25T20:44:09.948Z,8.66
2022-12-25T20:46:37.865Z,8.67
2022-12-25T20:49:05.750Z,8.68
2022-12-25T20:51:33.041Z,8.70
2022-12-25T20:54:00.979Z,8.70
2022-12-25T20:56:30.040Z,8.71
2022-12-25T20:59:00.539Z,8.71
2022-12-25T21:01:31.139Z,8.72
2022-12-25T21:03:59.446Z,8.72
2022-12-25T21:06:26.829Z,8.73
2022-12-25T21:08:54.311Z,8.73
2022-12-25T21:11:23.139Z,8.72
2022-12-25T21:13:50.633Z,8.72
2022-12-25T21:16:22.855Z,8.73
2022-12-25T21:18:53.963Z,8.71
2022-12-25T21:21:22.655Z,8.72
2022-12-25T21:23:50.458Z,8.72
2022-12-25T21:26:26.103Z,8.72
2022-12-25T21:29:00.192Z,8.72
2022-12-25T21:31:28.079Z,8.72
2022-12-25T21:33:57.626Z,8.73
2022-12-25T21:36:34.686Z,8.73
2022-12-25T21:39:07.452Z,8.70
2022-12-25T21:41:38.653Z,8.71
2022-12-25T21:44:07.648Z,8.72
2022-12-25T21:46:35.336Z,8.73
2022-12-25T21:49:03.177Z,8.74
2022-12-25T21:51:52.948Z,8.74
2022-12-25T21:54:23.222Z,8.73
2022-12-25T21:56:50.954Z,8.74
2022-12-25T21:59:22.784Z,8.74
2022-12-25T22:01:52.779Z,8.74
2022-12-25T22:04:23.262Z,8.74
2022-12-25T22:07:09.895Z,8.74
2022-12-25T22:09:37.894Z,8.75
2022-12-25T22:12:28.557Z,8.75
2022-12-25T22:15:06.147Z,8.75
2022-12-25T22:17:59.742Z,8.74
2022-12-25T22:20:37.514Z,8.76
2022-12-25T22:23:05.312Z,8.76
2022-12-25T22:25:32.757Z,8.76
2022-12-25T22:28:00.272Z,8.76
2022-12-25T22:30:29.498Z,8.76
2022-12-25T22:32:57.590Z,8.76
2022-12-25T22:35:25.166Z,8.76
2022-12-25T22:37:53.965Z,8.77
2022-12-25T22:40:21.962Z,8.78
2022-12-25T22:42:49.376Z,8.80
2022-12-25T22:45:16.976Z,8.81
2022-12-25T22:47:44.211Z,8.81
2022-12-25T22:50:17.070Z,8.82
2022-12-25T22:52:45.763Z,8.80
2022-12-25T22:55:18.782Z,8.81
2022-12-25T22:57:46.141Z,8.79
2022-12-25T23:00:14.340Z,8.79
2022-12-25T23:02:41.708Z,8.78
2022-12-25T23:05:09.453Z,8.79
2022-12-25T23:07:36.803Z,8.76
2022-12-25T23:10:06.858Z,8.74
2022-12-25T23:12:52.827Z,8.73
2022-12-25T23:15:20.042Z,8.74
2022-12-25T23:18:06.413Z,8.73
2022-12-25T23:20:52.280Z,8.73
2022-12-25T23:23:38.168Z,8.72
2022-12-25T23:26:08.930Z,8.71
2022-12-25T23:28:57.969Z,8.71
2022-12-25T23:31:36.568Z,8.72
2022-12-25T23:34:06.373Z,8.70
2022-12-25T23:36:34.764Z,8.70
2022-12-25T23:39:09.120Z,8.68
2022-12-25T23:41:39.290Z,8.65
2022-12-25T23:44:08.272Z,8.66
2022-12-25T23:46:35.904Z,8.66
2022-12-25T23:49:03.859Z,8.66
2022-12-25T23:51:31.238Z,8.68
2022-12-25T23:53:58.501Z,8.67
2022-12-25T23:56:25.716Z,8.67
2022-12-25T23:58:53.055Z,8.66
